sensor_id;sensor_type;location;lat;lon;timestamp;P1;durP1;ratioP1;P2;durP2;ratioP2
51738;SDS011;37815;52.692;6.226;2022-12-20T00:02:32;3.92;;;2.50;;
51738;SDS011;37815;52.692;6.226;2022-12-20T00:07:33;4.95;;;2.92;;
51738;SDS011;37815;52.692;6.226;2022-12-20T00:12:34;5.40;;;3.13;;
51738;SDS011;37815;52.692;6.226;2022-12-20T00:17:34;4.00;;;2.53;;
51738;SDS011;37815;52.692;6.226;2022-12-20T00:22:35;4.35;;;2.78;;
51738;SDS011;37815;52.692;6.226;2022-12-20T00:27:35;6.00;;;2.92;;
51738;SDS011;37815;52.692;6.226;2022-12-20T00:32:36;4.68;;;2.95;;
51738;SDS011;37815;52.692;6.226;2022-12-20T00:37:37;5.85;;;2.75;;
51738;SDS011;37815;52.692;6.226;2022-12-20T00:42:38;4.82;;;2.65;;
51738;SDS011;37815;52.692;6.226;2022-12-20T00:47:38;3.47;;;2.22;;
51738;SDS011;37815;52.692;6.226;2022-12-20T00:52:39;5.40;;;2.67;;
51738;SDS011;37815;52.692;6.226;2022-12-20T00:57:39;5.10;;;2.45;;
51738;SDS011;37815;52.692;6.226;2022-12-20T01:02:40;4.10;;;2.70;;
51738;SDS011;37815;52.692;6.226;2022-12-20T01:07:41;4.05;;;2.60;;
51738;SDS011;37815;52.692;6.226;2022-12-20T01:12:41;4.82;;;3.00;;
51738;SDS011;37815;52.692;6.226;2022-12-20T01:17:42;3.92;;;2.67;;
51738;SDS011;37815;52.692;6.226;2022-12-20T01:22:42;4.53;;;2.58;;
51738;SDS011;37815;52.692;6.226;2022-12-20T01:27:43;4.63;;;2.55;;
51738;SDS011;37815;52.692;6.226;2022-12-20T01:32:43;4.78;;;3.00;;
51738;SDS011;37815;52.692;6.226;2022-12-20T01:37:44;4.30;;;2.25;;
51738;SDS011;37815;52.692;6.226;2022-12-20T01:42:45;4.63;;;2.50;;
51738;SDS011;37815;52.692;6.226;2022-12-20T01:47:45;4.60;;;2.45;;
51738;SDS011;37815;52.692;6.226;2022-12-20T01:52:46;3.10;;;2.35;;
51738;SDS011;37815;52.692;6.226;2022-12-20T02:03:00;3.35;;;2.55;;
51738;SDS011;37815;52.692;6.226;2022-12-20T02:08:05;3.65;;;2.08;;
51738;SDS011;37815;52.692;6.226;2022-12-20T02:13:09;5.72;;;2.75;;
51738;SDS011;37815;52.692;6.226;2022-12-20T02:34:21;3.05;;;2.00;;
51738;SDS011;37815;52.692;6.226;2022-12-20T02:39:24;4.95;;;2.40;;
51738;SDS011;37815;52.692;6.226;2022-12-20T02:44:27;6.53;;;2.50;;
51738;SDS011;37815;52.692;6.226;2022-12-20T02:49:50;3.65;;;2.00;;
51738;SDS011;37815;52.692;6.226;2022-12-20T02:54:53;3.40;;;2.50;;
51738;SDS011;37815;52.692;6.226;2022-12-20T02:59:56;3.25;;;1.90;;
51738;SDS011;37815;52.692;6.226;2022-12-20T03:05:09;3.70;;;2.03;;
51738;SDS011;37815;52.692;6.226;2022-12-20T03:10:09;4.38;;;2.50;;
51738;SDS011;37815;52.692;6.226;2022-12-20T03:15:10;3.03;;;1.80;;
51738;SDS011;37815;52.692;6.226;2022-12-20T03:20:11;3.42;;;1.98;;
51738;SDS011;37815;52.692;6.226;2022-12-20T03:25:12;4.45;;;2.33;;
51738;SDS011;37815;52.692;6.226;2022-12-20T03:30:13;3.22;;;2.20;;
51738;SDS011;37815;52.692;6.226;2022-12-20T03:35:14;5.13;;;2.30;;
51738;SDS011;37815;52.692;6.226;2022-12-20T03:40:15;3.92;;;2.22;;
51738;SDS011;37815;52.692;6.226;2022-12-20T03:45:16;4.53;;;2.00;;
51738;SDS011;37815;52.692;6.226;2022-12-20T03:50:17;3.88;;;2.35;;
51738;SDS011;37815;52.692;6.226;2022-12-20T03:55:17;4.47;;;2.08;;
51738;SDS011;37815;52.692;6.226;2022-12-20T04:00:18;3.72;;;2.40;;
51738;SDS011;37815;52.692;6.226;2022-12-20T04:05:19;3.78;;;2.10;;
51738;SDS011;37815;52.692;6.226;2022-12-20T04:10:20;4.53;;;2.10;;
51738;SDS011;37815;52.692;6.226;2022-12-20T04:15:20;5.03;;;2.60;;
51738;SDS011;37815;52.692;6.226;2022-12-20T04:20:21;4.00;;;2.45;;
51738;SDS011;37815;52.692;6.226;2022-12-20T04:25:22;3.42;;;2.15;;
51738;SDS011;37815;52.692;6.226;2022-12-20T04:30:22;6.30;;;2.40;;
51738;SDS011;37815;52.692;6.226;2022-12-20T04:35:23;5.35;;;2.20;;
51738;SDS011;37815;52.692;6.226;2022-12-20T04:40:24;3.35;;;2.40;;
51738;SDS011;37815;52.692;6.226;2022-12-20T04:45:24;3.85;;;2.30;;
51738;SDS011;37815;52.692;6.226;2022-12-20T04:50:25;5.88;;;2.63;;
51738;SDS011;37815;52.692;6.226;2022-12-20T04:55:25;4.28;;;2.25;;
51738;SDS011;37815;52.692;6.226;2022-12-20T05:00:26;2.30;;;1.90;;
51738;SDS011;37815;52.692;6.226;2022-12-20T05:05:27;3.97;;;2.30;;
51738;SDS011;37815;52.692;6.226;2022-12-20T05:10:28;3.70;;;2.15;;
51738;SDS011;37815;52.692;6.226;2022-12-20T05:15:28;4.93;;;2.40;;
51738;SDS011;37815;52.692;6.226;2022-12-20T05:20:29;4.38;;;2.63;;
51738;SDS011;37815;52.692;6.226;2022-12-20T05:25:30;5.95;;;2.78;;
51738;SDS011;37815;52.692;6.226;2022-12-20T05:31:09;4.22;;;2.30;;
51738;SDS011;37815;52.692;6.226;2022-12-20T05:36:10;4.85;;;2.20;;
51738;SDS011;37815;52.692;6.226;2022-12-20T05:41:11;3.13;;;2.20;;
51738;SDS011;37815;52.692;6.226;2022-12-20T05:46:11;3.40;;;1.90;;
51738;SDS011;37815;52.692;6.226;2022-12-20T05:51:12;3.95;;;2.10;;
51738;SDS011;37815;52.692;6.226;2022-12-20T05:56:13;3.55;;;2.20;;
51738;SDS011;37815;52.692;6.226;2022-12-20T06:01:13;3.90;;;2.55;;
51738;SDS011;37815;52.692;6.226;2022-12-20T06:06:14;4.07;;;2.10;;
51738;SDS011;37815;52.692;6.226;2022-12-20T06:11:15;3.60;;;2.40;;
51738;SDS011;37815;52.692;6.226;2022-12-20T06:16:15;5.15;;;2.20;;
51738;SDS011;37815;52.692;6.226;2022-12-20T06:21:18;3.45;;;1.95;;
51738;SDS011;37815;52.692;6.226;2022-12-20T06:26:19;3.45;;;2.10;;
51738;SDS011;37815;52.692;6.226;2022-12-20T06:31:22;5.47;;;2.13;;
51738;SDS011;37815;52.692;6.226;2022-12-20T06:36:22;4.63;;;2.20;;
51738;SDS011;37815;52.692;6.226;2022-12-20T06:41:23;4.47;;;2.83;;
51738;SDS011;37815;52.692;6.226;2022-12-20T06:46:24;4.63;;;2.25;;
51738;SDS011;37815;52.692;6.226;2022-12-20T06:51:24;3.15;;;2.10;;
51738;SDS011;37815;52.692;6.226;2022-12-20T06:56:25;3.53;;;2.00;;
51738;SDS011;37815;52.692;6.226;2022-12-20T07:01:26;5.03;;;3.00;;
51738;SDS011;37815;52.692;6.226;2022-12-20T07:06:26;5.05;;;2.40;;
51738;SDS011;37815;52.692;6.226;2022-12-20T07:11:28;3.80;;;2.40;;
51738;SDS011;37815;52.692;6.226;2022-12-20T07:16:29;3.78;;;2.28;;
51738;SDS011;37815;52.692;6.226;2022-12-20T07:21:31;3.55;;;2.40;;
51738;SDS011;37815;52.692;6.226;2022-12-20T07:26:32;6.82;;;2.30;;
51738;SDS011;37815;52.692;6.226;2022-12-20T07:31:32;3.95;;;2.28;;
51738;SDS011;37815;52.692;6.226;2022-12-20T07:36:33;4.78;;;2.60;;
51738;SDS011;37815;52.692;6.226;2022-12-20T07:41:34;3.63;;;2.28;;
51738;SDS011;37815;52.692;6.226;2022-12-20T07:46:35;4.70;;;2.40;;
51738;SDS011;37815;52.692;6.226;2022-12-20T07:51:37;3.65;;;2.45;;
51738;SDS011;37815;52.692;6.226;2022-12-20T07:56:42;7.18;;;2.50;;
51738;SDS011;37815;52.692;6.226;2022-12-20T08:01:46;5.35;;;2.55;;
51738;SDS011;37815;52.692;6.226;2022-12-20T08:06:47;4.38;;;2.65;;
51738;SDS011;37815;52.692;6.226;2022-12-20T08:11:49;2.90;;;1.92;;
51738;SDS011;37815;52.692;6.226;2022-12-20T08:16:51;4.32;;;2.22;;
51738;SDS011;37815;52.692;6.226;2022-12-20T08:21:51;3.70;;;2.30;;
51738;SDS011;37815;52.692;6.226;2022-12-20T08:26:52;5.18;;;2.47;;
51738;SDS011;37815;52.692;6.226;2022-12-20T08:31:53;3.97;;;2.15;;
51738;SDS011;37815;52.692;6.226;2022-12-20T08:36:53;3.90;;;2.40;;
51738;SDS011;37815;52.692;6.226;2022-12-20T08:41:54;4.25;;;2.05;;
51738;SDS011;37815;52.692;6.226;2022-12-20T08:46:55;5.97;;;2.13;;
51738;SDS011;37815;52.692;6.226;2022-12-20T08:51:55;3.80;;;2.20;;
51738;SDS011;37815;52.692;6.226;2022-12-20T08:56:56;3.38;;;1.85;;
51738;SDS011;37815;52.692;6.226;2022-12-20T09:01:57;3.10;;;2.00;;
51738;SDS011;37815;52.692;6.226;2022-12-20T09:06:58;3.33;;;2.20;;
51738;SDS011;37815;52.692;6.226;2022-12-20T09:11:58;4.53;;;2.30;;
51738;SDS011;37815;52.692;6.226;2022-12-20T09:16:59;4.95;;;2.20;;
51738;SDS011;37815;52.692;6.226;2022-12-20T09:22:00;4.05;;;2.30;;
51738;SDS011;37815;52.692;6.226;2022-12-20T09:27:00;2.28;;;1.73;;
51738;SDS011;37815;52.692;6.226;2022-12-20T09:32:01;4.35;;;2.30;;
51738;SDS011;37815;52.692;6.226;2022-12-20T09:37:02;3.53;;;2.17;;
51738;SDS011;37815;52.692;6.226;2022-12-20T09:42:05;5.45;;;2.10;;
51738;SDS011;37815;52.692;6.226;2022-12-20T10:03:03;3.38;;;2.10;;
51738;SDS011;37815;52.692;6.226;2022-12-20T10:24:20;2.50;;;1.80;;
51738;SDS011;37815;52.692;6.226;2022-12-20T10:29:29;4.07;;;2.15;;
51738;SDS011;37815;52.692;6.226;2022-12-20T10:34:30;3.70;;;1.67;;
51738;SDS011;37815;52.692;6.226;2022-12-20T10:39:39;3.28;;;1.92;;
51738;SDS011;37815;52.692;6.226;2022-12-20T10:44:46;3.58;;;2.08;;
51738;SDS011;37815;52.692;6.226;2022-12-20T10:49:46;3.65;;;1.92;;
51738;SDS011;37815;52.692;6.226;2022-12-20T10:54:47;4.25;;;2.00;;
51738;SDS011;37815;52.692;6.226;2022-12-20T11:05:01;5.75;;;2.10;;
51738;SDS011;37815;52.692;6.226;2022-12-20T11:10:23;3.38;;;1.95;;
51738;SDS011;37815;52.692;6.226;2022-12-20T11:15:30;4.78;;;1.80;;
51738;SDS011;37815;52.692;6.226;2022-12-20T11:31:40;7.35;;;2.15;;
51738;SDS011;37815;52.692;6.226;2022-12-20T11:41:31;5.07;;;1.90;;
51738;SDS011;37815;52.692;6.226;2022-12-20T11:46:51;2.88;;;1.85;;
51738;SDS011;37815;52.692;6.226;2022-12-20T11:52:09;3.78;;;1.92;;
51738;SDS011;37815;52.692;6.226;2022-12-20T12:03:00;3.65;;;1.95;;
51738;SDS011;37815;52.692;6.226;2022-12-20T12:08:04;3.13;;;1.90;;
51738;SDS011;37815;52.692;6.226;2022-12-20T12:18:30;3.60;;;1.80;;
51738;SDS011;37815;52.692;6.226;2022-12-20T12:28:41;2.40;;;1.63;;
51738;SDS011;37815;52.692;6.226;2022-12-20T12:33:42;2.55;;;1.75;;
51738;SDS011;37815;52.692;6.226;2022-12-20T12:44:40;2.88;;;1.70;;
51738;SDS011;37815;52.692;6.226;2022-12-20T12:49:49;3.47;;;1.90;;
51738;SDS011;37815;52.692;6.226;2022-12-20T12:54:52;2.42;;;1.45;;
51738;SDS011;37815;52.692;6.226;2022-12-20T12:59:52;3.85;;;2.08;;
51738;SDS011;37815;52.692;6.226;2022-12-20T13:20:20;4.18;;;1.65;;
51738;SDS011;37815;52.692;6.226;2022-12-20T13:25:26;2.90;;;1.80;;
51738;SDS011;37815;52.692;6.226;2022-12-20T13:30:28;3.45;;;1.55;;
51738;SDS011;37815;52.692;6.226;2022-12-20T13:35:30;3.10;;;1.60;;
51738;SDS011;37815;52.692;6.226;2022-12-20T13:51:06;2.60;;;1.80;;
51738;SDS011;37815;52.692;6.226;2022-12-20T14:01:26;2.95;;;2.00;;
51738;SDS011;37815;52.692;6.226;2022-12-20T14:06:27;4.25;;;1.70;;
51738;SDS011;37815;52.692;6.226;2022-12-20T14:11:28;3.33;;;1.67;;
51738;SDS011;37815;52.692;6.226;2022-12-20T14:16:30;5.68;;;1.73;;
51738;SDS011;37815;52.692;6.226;2022-12-20T14:21:35;4.13;;;1.90;;
51738;SDS011;37815;52.692;6.226;2022-12-20T14:26:41;5.32;;;2.10;;
51738;SDS011;37815;52.692;6.226;2022-12-20T14:31:46;2.55;;;1.95;;
51738;SDS011;37815;52.692;6.226;2022-12-20T14:36:48;2.17;;;1.52;;
51738;SDS011;37815;52.692;6.226;2022-12-20T14:47:24;2.55;;;1.83;;
51738;SDS011;37815;52.692;6.226;2022-12-20T14:52:38;3.45;;;2.10;;
51738;SDS011;37815;52.692;6.226;2022-12-20T15:07:48;2.85;;;1.98;;
51738;SDS011;37815;52.692;6.226;2022-12-20T15:12:49;4.43;;;2.25;;
51738;SDS011;37815;52.692;6.226;2022-12-20T15:17:49;3.67;;;2.28;;
51738;SDS011;37815;52.692;6.226;2022-12-20T15:22:50;2.70;;;2.00;;
51738;SDS011;37815;52.692;6.226;2022-12-20T15:27:51;2.70;;;1.90;;
51738;SDS011;37815;52.692;6.226;2022-12-20T15:32:51;3.08;;;2.15;;
51738;SDS011;37815;52.692;6.226;2022-12-20T15:37:52;3.53;;;1.98;;
51738;SDS011;37815;52.692;6.226;2022-12-20T15:42:53;3.03;;;2.10;;
51738;SDS011;37815;52.692;6.226;2022-12-20T15:47:53;2.53;;;1.80;;
51738;SDS011;37815;52.692;6.226;2022-12-20T15:52:54;2.30;;;1.90;;
51738;SDS011;37815;52.692;6.226;2022-12-20T15:57:55;2.80;;;2.17;;
51738;SDS011;37815;52.692;6.226;2022-12-20T16:02:55;2.53;;;1.88;;
51738;SDS011;37815;52.692;6.226;2022-12-20T16:07:58;2.63;;;1.88;;
51738;SDS011;37815;52.692;6.226;2022-12-20T16:12:58;3.13;;;2.08;;
51738;SDS011;37815;52.692;6.226;2022-12-20T16:17:59;1.80;;;1.58;;
51738;SDS011;37815;52.692;6.226;2022-12-20T16:23:00;2.47;;;1.92;;
51738;SDS011;37815;52.692;6.226;2022-12-20T16:28:02;4.93;;;2.20;;
51738;SDS011;37815;52.692;6.226;2022-12-20T16:33:03;4.53;;;2.33;;
51738;SDS011;37815;52.692;6.226;2022-12-20T16:38:05;3.83;;;2.47;;
51738;SDS011;37815;52.692;6.226;2022-12-20T16:43:08;3.92;;;2.63;;
51738;SDS011;37815;52.692;6.226;2022-12-20T16:48:13;4.30;;;2.88;;
51738;SDS011;37815;52.692;6.226;2022-12-20T16:53:13;5.53;;;3.40;;
51738;SDS011;37815;52.692;6.226;2022-12-20T16:58:14;6.57;;;4.05;;
51738;SDS011;37815;52.692;6.226;2022-12-20T17:03:15;7.28;;;4.35;;
51738;SDS011;37815;52.692;6.226;2022-12-20T17:08:16;6.53;;;4.18;;
51738;SDS011;37815;52.692;6.226;2022-12-20T17:13:16;7.57;;;4.45;;
51738;SDS011;37815;52.692;6.226;2022-12-20T17:18:17;7.82;;;3.97;;
51738;SDS011;37815;52.692;6.226;2022-12-20T17:23:18;8.40;;;4.30;;
51738;SDS011;37815;52.692;6.226;2022-12-20T17:28:21;6.00;;;3.92;;
51738;SDS011;37815;52.692;6.226;2022-12-20T17:33:22;6.43;;;3.95;;
51738;SDS011;37815;52.692;6.226;2022-12-20T17:38:23;6.57;;;4.38;;
51738;SDS011;37815;52.692;6.226;2022-12-20T17:43:23;6.25;;;4.07;;
51738;SDS011;37815;52.692;6.226;2022-12-20T17:48:25;7.78;;;4.30;;
51738;SDS011;37815;52.692;6.226;2022-12-20T17:53:25;6.18;;;3.60;;
51738;SDS011;37815;52.692;6.226;2022-12-20T17:58:27;6.95;;;3.97;;
51738;SDS011;37815;52.692;6.226;2022-12-20T18:03:27;7.95;;;4.22;;
51738;SDS011;37815;52.692;6.226;2022-12-20T18:08:28;8.07;;;5.00;;
51738;SDS011;37815;52.692;6.226;2022-12-20T18:13:28;6.78;;;4.50;;
51738;SDS011;37815;52.692;6.226;2022-12-20T18:18:29;6.38;;;4.00;;
51738;SDS011;37815;52.692;6.226;2022-12-20T18:23:31;9.40;;;4.68;;
51738;SDS011;37815;52.692;6.226;2022-12-20T18:28:32;8.75;;;4.53;;
51738;SDS011;37815;52.692;6.226;2022-12-20T18:33:33;6.60;;;4.10;;
51738;SDS011;37815;52.692;6.226;2022-12-20T18:38:34;6.72;;;4.53;;
51738;SDS011;37815;52.692;6.226;2022-12-20T18:43:36;7.90;;;3.78;;
51738;SDS011;37815;52.692;6.226;2022-12-20T18:48:36;6.85;;;4.45;;
51738;SDS011;37815;52.692;6.226;2022-12-20T18:53:38;7.05;;;4.53;;
51738;SDS011;37815;52.692;6.226;2022-12-20T18:58:41;6.95;;;4.60;;
51738;SDS011;37815;52.692;6.226;2022-12-20T19:03:42;7.13;;;3.85;;
51738;SDS011;37815;52.692;6.226;2022-12-20T19:08:43;6.43;;;4.28;;
51738;SDS011;37815;52.692;6.226;2022-12-20T19:13:44;7.93;;;3.78;;
51738;SDS011;37815;52.692;6.226;2022-12-20T19:18:45;7.65;;;4.05;;
51738;SDS011;37815;52.692;6.226;2022-12-20T19:23:47;7.97;;;4.00;;
51738;SDS011;37815;52.692;6.226;2022-12-20T19:28:50;7.20;;;4.22;;
51738;SDS011;37815;52.692;6.226;2022-12-20T19:33:52;6.50;;;4.13;;
51738;SDS011;37815;52.692;6.226;2022-12-20T19:38:55;7.07;;;4.53;;
51738;SDS011;37815;52.692;6.226;2022-12-20T19:43:57;8.27;;;4.18;;
51738;SDS011;37815;52.692;6.226;2022-12-20T19:48:58;5.75;;;3.70;;
51738;SDS011;37815;52.692;6.226;2022-12-20T19:53:59;6.63;;;4.18;;
51738;SDS011;37815;52.692;6.226;2022-12-20T19:59:00;9.23;;;4.50;;
51738;SDS011;37815;52.692;6.226;2022-12-20T20:04:01;8.95;;;4.93;;
51738;SDS011;37815;52.692;6.226;2022-12-20T20:09:04;7.85;;;4.20;;
51738;SDS011;37815;52.692;6.226;2022-12-20T20:14:05;7.57;;;4.63;;
51738;SDS011;37815;52.692;6.226;2022-12-20T20:19:08;8.45;;;4.82;;
51738;SDS011;37815;52.692;6.226;2022-12-20T20:24:09;7.15;;;4.10;;
51738;SDS011;37815;52.692;6.226;2022-12-20T20:29:09;7.38;;;4.28;;
51738;SDS011;37815;52.692;6.226;2022-12-20T20:34:10;7.32;;;4.43;;
51738;SDS011;37815;52.692;6.226;2022-12-20T20:39:11;7.65;;;4.05;;
51738;SDS011;37815;52.692;6.226;2022-12-20T20:44:11;7.55;;;4.28;;
51738;SDS011;37815;52.692;6.226;2022-12-20T20:49:12;5.43;;;3.70;;
51738;SDS011;37815;52.692;6.226;2022-12-20T20:54:13;6.50;;;3.83;;
51738;SDS011;37815;52.692;6.226;2022-12-20T20:59:14;7.35;;;4.38;;
51738;SDS011;37815;52.692;6.226;2022-12-20T21:04:14;6.88;;;4.43;;
51738;SDS011;37815;52.692;6.226;2022-12-20T21:09:15;7.47;;;4.05;;
51738;SDS011;37815;52.692;6.226;2022-12-20T21:14:16;7.88;;;4.07;;
51738;SDS011;37815;52.692;6.226;2022-12-20T21:19:16;6.50;;;4.20;;
51738;SDS011;37815;52.692;6.226;2022-12-20T21:24:17;6.18;;;3.80;;
51738;SDS011;37815;52.692;6.226;2022-12-20T21:29:18;8.32;;;4.72;;
51738;SDS011;37815;52.692;6.226;2022-12-20T21:34:18;11.10;;;5.18;;
51738;SDS011;37815;52.692;6.226;2022-12-20T21:39:19;7.88;;;4.82;;
51738;SDS011;37815;52.692;6.226;2022-12-20T21:44:19;6.75;;;4.50;;
51738;SDS011;37815;52.692;6.226;2022-12-20T21:49:20;8.40;;;4.82;;
51738;SDS011;37815;52.692;6.226;2022-12-20T21:54:21;12.80;;;6.35;;
51738;SDS011;37815;52.692;6.226;2022-12-20T21:59:22;12.32;;;5.35;;
51738;SDS011;37815;52.692;6.226;2022-12-20T22:04:23;12.82;;;5.60;;
51738;SDS011;37815;52.692;6.226;2022-12-20T22:09:24;11.70;;;5.50;;
51738;SDS011;37815;52.692;6.226;2022-12-20T22:14:25;11.90;;;6.15;;
51738;SDS011;37815;52.692;6.226;2022-12-20T22:19:25;10.27;;;5.05;;
51738;SDS011;37815;52.692;6.226;2022-12-20T22:24:26;8.98;;;5.15;;
51738;SDS011;37815;52.692;6.226;2022-12-20T22:29:27;9.13;;;4.57;;
51738;SDS011;37815;52.692;6.226;2022-12-20T22:34:27;9.15;;;5.38;;
51738;SDS011;37815;52.692;6.226;2022-12-20T22:39:28;8.98;;;5.43;;
51738;SDS011;37815;52.692;6.226;2022-12-20T22:44:29;11.35;;;6.13;;
51738;SDS011;37815;52.692;6.226;2022-12-20T22:49:29;9.50;;;5.10;;
51738;SDS011;37815;52.692;6.226;2022-12-20T22:54:30;9.32;;;5.28;;
51738;SDS011;37815;52.692;6.226;2022-12-20T22:59:30;10.80;;;5.28;;
51738;SDS011;37815;52.692;6.226;2022-12-20T23:04:33;9.38;;;5.25;;
51738;SDS011;37815;52.692;6.226;2022-12-20T23:09:34;9.77;;;5.45;;
51738;SDS011;37815;52.692;6.226;2022-12-20T23:14:34;11.10;;;5.50;;
51738;SDS011;37815;52.692;6.226;2022-12-20T23:19:53;10.90;;;5.50;;
51738;SDS011;37815;52.692;6.226;2022-12-20T23:30:16;9.55;;;5.18;;
51738;SDS011;37815;52.692;6.226;2022-12-20T23:35:18;7.40;;;4.22;;
51738;SDS011;37815;52.692;6.226;2022-12-20T23:40:20;10.38;;;5.43;;
51738;SDS011;37815;52.692;6.226;2022-12-20T23:45:21;10.77;;;5.18;;
51738;SDS011;37815;52.692;6.226;2022-12-20T23:50:21;9.93;;;4.80;;
51738;SDS011;37815;52.692;6.226;2022-12-20T23:55:22;9.10;;;5.20;;
